createdAt,value
2019-02-07T00:00:35.964Z,1013.28
2019-02-07T00:01:35.964Z,1013.21
2019-02-07T00:02:36.000Z,1013.23
2019-02-07T00:03:35.924Z,1013.30
2019-02-07T00:04:36.722Z,1013.24
2019-02-07T00:05:35.914Z,1013.24
2019-02-07T00:06:35.918Z,1013.17
2019-02-07T00:07:35.896Z,1013.16
2019-02-07T00:08:35.877Z,1013.11
2019-02-07T00:09:35.867Z,1013.18
2019-02-07T00:10:35.859Z,1013.17
2019-02-07T00:11:35.862Z,1013.09
2019-02-07T00:12:35.829Z,1013.08
2019-02-07T00:13:35.828Z,1013.16
2019-02-07T00:14:39.766Z,1013.13
2019-02-07T00:15:36.588Z,1013.18
2019-02-07T00:16:35.817Z,1013.23
2019-02-07T00:17:35.772Z,1013.21
2019-02-07T00:18:35.768Z,1013.15
2019-02-07T00:19:35.743Z,1013.11
2019-02-07T00:20:35.747Z,1012.98
2019-02-07T00:21:35.750Z,1013.04
2019-02-07T00:22:35.719Z,1013.01
2019-02-07T00:23:35.709Z,1013.09
2019-02-07T00:24:42.536Z,1012.97
2019-02-07T00:25:36.704Z,1013.02
2019-02-07T00:26:35.701Z,1012.98
2019-02-07T00:27:35.674Z,1012.98
2019-02-07T00:28:35.657Z,1012.94
2019-02-07T00:29:35.646Z,1012.99
2019-02-07T00:30:35.629Z,1012.95
2019-02-07T00:31:35.634Z,1012.87
2019-02-07T00:32:35.615Z,1012.95
2019-02-07T00:33:35.601Z,1012.89
2019-02-07T00:34:35.602Z,1013.00
2019-02-07T00:35:35.576Z,1012.91
2019-02-07T00:36:35.587Z,1012.91
2019-02-07T00:37:35.559Z,1012.91
2019-02-07T00:38:35.547Z,1012.88
2019-02-07T00:39:35.531Z,1012.94
2019-02-07T00:40:35.533Z,1012.93
2019-02-07T00:41:35.539Z,1012.86
2019-02-07T00:42:35.501Z,1012.89
2019-02-07T00:43:35.498Z,1012.92
2019-02-07T00:44:35.484Z,1012.88
2019-02-07T00:45:35.472Z,1012.84
2019-02-07T00:46:35.498Z,1012.92
2019-02-07T00:47:35.444Z,1012.82
2019-02-07T00:48:35.434Z,1012.81
2019-02-07T00:49:35.421Z,1012.89
2019-02-07T00:50:35.429Z,1012.95
2019-02-07T00:51:35.420Z,1012.91
2019-02-07T00:52:35.418Z,1012.78
2019-02-07T00:53:35.377Z,1012.81
2019-02-07T00:54:35.370Z,1012.78
2019-02-07T00:55:35.377Z,1012.76
2019-02-07T00:56:35.350Z,1012.85
2019-02-07T00:57:35.351Z,1012.79
2019-02-07T00:58:35.343Z,1012.77
2019-02-07T00:59:35.315Z,1012.75
2019-02-07T01:00:35.332Z,1012.79
2019-02-07T01:01:35.300Z,1012.73
2019-02-07T01:02:35.318Z,1012.78
2019-02-07T01:03:35.280Z,1012.77
2019-02-07T01:04:35.255Z,1012.82
2019-02-07T01:05:35.247Z,1012.93
2019-02-07T01:06:35.249Z,1012.85
2019-02-07T01:07:35.246Z,1012.80
2019-02-07T01:08:35.228Z,1012.71
2019-02-07T01:09:35.207Z,1012.67
2019-02-07T01:10:35.193Z,1012.62
2019-02-07T01:11:35.176Z,1012.70
2019-02-07T01:12:35.196Z,1012.64
2019-02-07T01:13:35.172Z,1012.65
2019-02-07T01:14:35.161Z,1012.62
2019-02-07T01:15:35.164Z,1012.57
2019-02-07T01:16:35.152Z,1012.57
2019-02-07T01:17:35.136Z,1012.41
2019-02-07T01:18:35.108Z,1012.39
2019-02-07T01:19:35.102Z,1012.31
2019-02-07T01:20:35.084Z,1012.42
2019-02-07T01:21:35.126Z,1012.37
2019-02-07T01:22:35.102Z,1012.35
2019-02-07T01:23:35.068Z,1012.31
2019-02-07T01:24:35.038Z,1012.30
2019-02-07T01:25:35.034Z,1012.32
2019-02-07T01:26:35.021Z,1012.35
2019-02-07T01:27:35.030Z,1012.35
2019-02-07T01:28:34.998Z,1012.27
2019-02-07T01:29:34.991Z,1012.30
2019-02-07T01:30:34.984Z,1012.33
2019-02-07T01:31:34.980Z,1012.31
2019-02-07T01:32:34.980Z,1012.41
2019-02-07T01:33:34.948Z,1012.47
2019-02-07T01:34:34.940Z,1012.31
2019-02-07T01:35:34.915Z,1012.31
2019-02-07T01:36:34.911Z,1012.27
2019-02-07T01:37:34.900Z,1012.40
2019-02-07T01:38:34.905Z,1012.27
2019-02-07T01:39:34.874Z,1012.25
2019-02-07T01:40:34.881Z,1012.27
2019-02-07T01:41:34.873Z,1012.36
2019-02-07T01:42:34.840Z,1012.42
2019-02-07T01:43:34.854Z,1012.36
2019-02-07T01:44:34.823Z,1012.39
2019-02-07T01:45:34.823Z,1012.30
2019-02-07T01:46:34.795Z,1012.23
2019-02-07T01:47:34.790Z,1012.34
2019-02-07T01:48:34.799Z,1012.31
2019-02-07T01:49:34.788Z,1012.40
2019-02-07T01:50:34.759Z,1012.31
2019-02-07T01:51:34.751Z,1012.38
2019-02-07T01:52:34.740Z,1012.30
2019-02-07T01:53:34.745Z,1012.34
2019-02-07T01:54:34.721Z,1012.30
2019-02-07T01:55:34.699Z,1012.38
2019-02-07T01:56:34.815Z,1012.33
2019-02-07T01:57:34.686Z,1012.33
2019-02-07T01:58:34.687Z,1012.31
2019-02-07T01:59:34.659Z,1012.20
2019-02-07T02:00:34.665Z,1012.05
2019-02-07T02:01:34.639Z,1012.05
2019-02-07T02:02:34.654Z,1012.08
2019-02-07T02:03:34.657Z,1012.04
2019-02-07T02:04:34.612Z,1012.06
2019-02-07T02:05:34.599Z,1012.04
2019-02-07T02:06:34.600Z,1011.99
2019-02-07T02:07:34.571Z,1011.91
2019-02-07T02:08:34.581Z,1011.91
2019-02-07T02:09:34.557Z,1011.82
2019-02-07T02:10:34.533Z,1011.87
2019-02-07T02:11:34.544Z,1011.83
2019-02-07T02:12:34.518Z,1011.84
2019-02-07T02:13:34.541Z,1011.80
2019-02-07T02:14:34.494Z,1011.80
2019-02-07T02:15:34.501Z,1011.74
2019-02-07T02:16:34.483Z,1011.79
2019-02-07T02:17:34.472Z,1011.87
2019-02-07T02:18:34.460Z,1011.90
2019-02-07T02:19:34.488Z,1011.84
2019-02-07T02:20:34.434Z,1011.88
2019-02-07T02:21:34.421Z,1011.73
2019-02-07T02:22:34.407Z,1011.73
2019-02-07T02:23:34.418Z,1011.65
2019-02-07T02:24:34.398Z,1011.62
2019-02-07T02:25:34.382Z,1011.61
2019-02-07T02:26:34.372Z,1011.56
2019-02-07T02:27:34.360Z,1011.70
2019-02-07T02:28:34.346Z,1011.63
2019-02-07T02:29:34.454Z,1011.65
2019-02-07T02:30:34.344Z,1011.65
2019-02-07T02:31:34.315Z,1011.58
2019-02-07T02:32:34.310Z,1011.55
2019-02-07T02:33:34.332Z,1011.59
2019-02-07T02:34:34.296Z,1011.51
2019-02-07T02:35:34.306Z,1011.50
2019-02-07T02:36:34.261Z,1011.37
2019-02-07T02:37:34.254Z,1011.42
2019-02-07T02:38:34.245Z,1011.38
2019-02-07T02:39:34.256Z,1011.36
2019-02-07T02:40:34.217Z,1011.54
2019-02-07T02:41:34.211Z,1011.38
2019-02-07T02:42:34.196Z,1011.58
2019-02-07T02:43:34.187Z,1011.51
2019-02-07T02:44:34.197Z,1011.41
2019-02-07T02:45:37.523Z,1011.39
2019-02-07T02:46:34.149Z,1011.45
2019-02-07T02:47:34.147Z,1011.43
2019-02-07T02:48:34.128Z,1011.39
2019-02-07T02:49:34.148Z,1011.39
2019-02-07T02:50:34.109Z,1011.48
2019-02-07T02:51:34.118Z,1011.37
2019-02-07T02:52:34.094Z,1011.27
2019-02-07T02:53:34.101Z,1011.29
2019-02-07T02:54:34.093Z,1011.14
2019-02-07T02:55:34.215Z,1011.10
2019-02-07T02:56:34.050Z,1011.15
2019-02-07T02:57:34.041Z,1011.14
2019-02-07T02:58:34.023Z,1011.14
2019-02-07T02:59:34.054Z,1011.02
2019-02-07T03:00:33.996Z,1011.09
2019-02-07T03:01:33.985Z,1011.10
2019-02-07T03:02:33.982Z,1011.08
2019-02-07T03:03:33.963Z,1011.13
2019-02-07T03:04:33.961Z,1011.15
2019-02-07T03:05:33.975Z,1011.14
2019-02-07T03:06:33.936Z,1011.14
2019-02-07T03:07:33.938Z,1011.05
2019-02-07T03:08:33.936Z,1011.07
2019-02-07T03:09:34.659Z,1011.24
2019-02-07T03:10:33.897Z,1011.19
2019-02-07T03:11:33.891Z,1011.15
2019-02-07T03:12:33.875Z,1011.04
2019-02-07T03:13:33.849Z,1011.09
2019-02-07T03:14:33.846Z,1011.00
2019-02-07T03:15:33.860Z,1011.09
2019-02-07T03:16:33.835Z,1011.09
2019-02-07T03:17:33.818Z,1011.16
2019-02-07T03:18:33.807Z,1011.18
2019-02-07T03:19:33.785Z,1011.17
2019-02-07T03:20:33.813Z,1011.02
2019-02-07T03:21:33.773Z,1010.89
2019-02-07T03:22:33.757Z,1010.95
2019-02-07T03:23:33.751Z,1011.06
2019-02-07T03:24:33.745Z,1010.87
2019-02-07T03:25:33.741Z,1010.87
2019-02-07T03:26:33.717Z,1010.86
2019-02-07T03:27:33.705Z,1010.88
2019-02-07T03:28:33.694Z,1010.88
2019-02-07T03:29:33.699Z,1010.82
2019-02-07T03:30:33.687Z,1010.86
2019-02-07T03:31:33.679Z,1010.78
2019-02-07T03:32:33.654Z,1010.77
2019-02-07T03:33:33.664Z,1010.74
2019-02-07T03:34:33.627Z,1010.66
2019-02-07T03:35:33.629Z,1010.73
2019-02-07T03:36:33.606Z,1010.81
2019-02-07T03:37:33.597Z,1010.86
2019-02-07T03:38:33.587Z,1010.65
2019-02-07T03:39:33.601Z,1010.68
2019-02-07T03:40:33.596Z,1010.61
2019-02-07T03:41:33.555Z,1010.64
2019-02-07T03:42:33.552Z,1010.73
2019-02-07T03:43:33.532Z,1010.70
2019-02-07T03:44:33.523Z,1010.73
2019-02-07T03:45:33.496Z,1010.73
2019-02-07T03:46:33.513Z,1010.72
2019-02-07T03:47:33.492Z,1010.55
2019-02-07T03:48:33.487Z,1010.64
2019-02-07T03:49:33.481Z,1010.64
2019-02-07T03:50:33.459Z,1010.61
2019-02-07T03:51:33.453Z,1010.62
2019-02-07T03:52:33.435Z,1010.64
2019-02-07T03:53:33.425Z,1010.62
2019-02-07T03:54:33.415Z,1010.56
2019-02-07T03:55:33.396Z,1010.53
2019-02-07T03:56:33.417Z,1010.58
2019-02-07T03:57:33.410Z,1010.58
2019-02-07T03:58:33.380Z,1010.49
2019-02-07T03:59:33.363Z,1010.64
2019-02-07T04:00:33.352Z,1010.54
2019-02-07T04:01:33.362Z,1010.58
2019-02-07T04:02:33.424Z,1010.52
2019-02-07T04:03:33.308Z,1010.52
2019-02-07T04:04:33.319Z,1010.50
2019-02-07T04:05:33.296Z,1010.46
2019-02-07T04:06:33.306Z,1010.42
2019-02-07T04:07:33.270Z,1010.54
2019-02-07T04:08:33.260Z,1010.45
2019-02-07T04:09:33.238Z,1010.47
2019-02-07T04:10:33.237Z,1010.48
2019-02-07T04:11:33.242Z,1010.42
2019-02-07T04:12:33.231Z,1010.37
2019-02-07T04:13:33.194Z,1010.39
2019-02-07T04:14:33.193Z,1010.46
2019-02-07T04:15:33.188Z,1010.41
2019-02-07T04:16:33.186Z,1010.41
2019-02-07T04:17:33.163Z,1010.47
2019-02-07T04:18:33.153Z,1010.58
2019-02-07T04:19:33.133Z,1010.49
2019-02-07T04:20:33.130Z,1010.40
2019-02-07T04:21:33.358Z,1010.48
2019-02-07T04:22:33.111Z,1010.44
2019-02-07T04:23:33.106Z,1010.40
2019-02-07T04:24:33.082Z,1010.43
2019-02-07T04:25:33.069Z,1010.33
2019-02-07T04:26:33.093Z,1010.35
2019-02-07T04:27:33.058Z,1010.33
2019-02-07T04:28:33.070Z,1010.44
2019-02-07T04:29:33.032Z,1010.37
2019-02-07T04:30:33.014Z,1010.33
2019-02-07T04:31:33.019Z,1010.29
2019-02-07T04:32:33.026Z,1010.30
2019-02-07T04:33:32.990Z,1010.28
2019-02-07T04:34:32.980Z,1010.23
2019-02-07T04:35:32.975Z,1010.26
2019-02-07T04:36:32.954Z,1010.17
2019-02-07T04:37:32.956Z,1010.14
2019-02-07T04:38:32.939Z,1010.17
2019-02-07T04:39:32.938Z,1010.27
2019-02-07T04:40:32.927Z,1010.35
2019-02-07T04:41:32.917Z,1010.20
2019-02-07T04:42:32.923Z,1010.08
2019-02-07T04:43:32.884Z,1010.04
2019-02-07T04:44:32.869Z,1010.00
2019-02-07T04:45:32.855Z,1010.10
2019-02-07T04:46:32.845Z,1010.08
2019-02-07T04:47:32.864Z,1010.14
2019-02-07T04:48:32.819Z,1010.19
2019-02-07T04:49:32.830Z,1010.07
2019-02-07T04:50:32.811Z,1010.04
2019-02-07T04:51:32.793Z,1010.03
2019-02-07T04:52:32.795Z,1009.95
2019-02-07T04:53:32.773Z,1009.89
2019-02-07T04:54:32.759Z,1009.90
2019-02-07T04:55:32.756Z,1009.88
2019-02-07T04:56:32.738Z,1009.97
2019-02-07T04:57:32.788Z,1009.95
2019-02-07T04:58:32.723Z,1009.95
2019-02-07T04:59:32.715Z,1009.79
2019-02-07T05:00:32.709Z,1009.79
2019-02-07T05:01:32.693Z,1009.91
2019-02-07T05:02:32.668Z,1009.86
2019-02-07T05:03:32.690Z,1009.73
2019-02-07T05:04:32.641Z,1009.71
2019-02-07T05:05:32.636Z,1009.64
2019-02-07T05:06:32.632Z,1009.78
2019-02-07T05:07:32.620Z,1009.77
2019-02-07T05:08:32.657Z,1009.71
2019-02-07T05:09:32.603Z,1009.68
2019-02-07T05:10:32.578Z,1009.70
2019-02-07T05:11:32.586Z,1009.68
2019-02-07T05:12:32.562Z,1009.68
2019-02-07T05:13:32.564Z,1009.68
2019-02-07T05:14:32.543Z,1009.65
2019-02-07T05:15:32.569Z,1009.63
2019-02-07T05:16:39.830Z,1009.76
2019-02-07T05:17:33.540Z,1009.77
2019-02-07T05:18:32.516Z,1009.80
2019-02-07T05:19:32.492Z,1009.70
2019-02-07T05:20:32.982Z,1009.71
2019-02-07T05:21:32.488Z,1009.66
2019-02-07T05:22:32.465Z,1009.61
2019-02-07T05:23:32.473Z,1009.58
2019-02-07T05:24:32.434Z,1009.48
2019-02-07T05:25:32.418Z,1009.42
2019-02-07T05:26:32.419Z,1009.48
2019-02-07T05:27:34.986Z,1009.56
2019-02-07T05:28:32.397Z,1009.47
2019-02-07T05:29:32.381Z,1009.64
2019-02-07T05:30:32.376Z,1009.51
2019-02-07T05:31:32.354Z,1009.46
2019-02-07T05:32:32.362Z,1009.44
2019-02-07T05:33:32.352Z,1009.44
2019-02-07T05:34:32.327Z,1009.57
2019-02-07T05:35:32.314Z,1009.54
2019-02-07T05:36:32.369Z,1009.51
2019-02-07T05:37:32.284Z,1009.52
2019-02-07T05:38:32.315Z,1009.42
2019-02-07T05:39:32.267Z,1009.44
2019-02-07T05:40:32.321Z,1009.34
2019-02-07T05:41:32.259Z,1009.32
2019-02-07T05:42:32.247Z,1009.38
2019-02-07T05:43:32.227Z,1009.30
2019-02-07T05:44:32.246Z,1009.38
2019-02-07T05:45:32.207Z,1009.30
2019-02-07T05:46:32.193Z,1009.35
2019-02-07T05:47:32.211Z,1009.24
2019-02-07T05:48:32.165Z,1009.28
2019-02-07T05:49:32.176Z,1009.30
2019-02-07T05:50:32.156Z,1009.27
2019-02-07T05:51:32.136Z,1009.34
2019-02-07T05:52:32.135Z,1009.27
2019-02-07T05:53:32.121Z,1009.50
2019-02-07T05:54:32.134Z,1009.45
2019-02-07T05:55:32.135Z,1009.43
2019-02-07T05:56:32.089Z,1009.33
2019-02-07T05:57:32.080Z,1009.28
2019-02-07T05:58:32.065Z,1009.36
2019-02-07T05:59:32.077Z,1009.32
2019-02-07T06:00:32.049Z,1009.17
2019-02-07T06:01:32.035Z,1009.25
2019-02-07T06:02:32.023Z,1009.43
2019-02-07T06:03:32.009Z,1009.40
2019-02-07T06:04:32.017Z,1009.40
2019-02-07T06:05:31.984Z,1009.19
2019-02-07T06:06:31.979Z,1009.24
2019-02-07T06:07:31.961Z,1009.23
2019-02-07T06:08:32.014Z,1009.41
2019-02-07T06:09:31.944Z,1009.21
2019-02-07T06:10:31.967Z,1009.18
2019-02-07T06:11:31.925Z,1009.14
2019-02-07T06:12:31.913Z,1009.09
2019-02-07T06:13:31.899Z,1009.13
2019-02-07T06:14:31.891Z,1009.08
2019-02-07T06:15:31.898Z,1009.07
2019-02-07T06:16:31.882Z,1009.10
2019-02-07T06:17:31.857Z,1009.10
2019-02-07T06:18:31.847Z,1009.15
2019-02-07T06:19:31.835Z,1009.17
2019-02-07T06:20:31.934Z,1009.06
2019-02-07T06:21:31.820Z,1009.21
2019-02-07T06:22:31.817Z,1009.24
2019-02-07T06:23:31.799Z,1009.12
2019-02-07T06:24:31.779Z,1009.08
2019-02-07T06:25:31.783Z,1009.07
2019-02-07T06:26:31.763Z,1009.06
2019-02-07T06:27:31.750Z,1009.02
2019-02-07T06:28:31.738Z,1008.96
2019-02-07T06:29:31.727Z,1008.94
2019-02-07T06:30:31.747Z,1009.11
2019-02-07T06:31:31.706Z,1009.04
2019-02-07T06:32:31.697Z,1009.04
2019-02-07T06:33:31.685Z,1008.91
2019-02-07T06:34:31.667Z,1008.85
2019-02-07T06:35:31.659Z,1008.91
2019-02-07T06:36:31.670Z,1008.97
2019-02-07T06:37:31.636Z,1008.94
2019-02-07T06:38:31.648Z,1008.72
2019-02-07T06:39:31.621Z,1008.83
2019-02-07T06:40:31.618Z,1008.95
2019-02-07T06:41:31.627Z,1008.94
2019-02-07T06:42:31.585Z,1008.91
2019-02-07T06:43:31.573Z,1008.94
2019-02-07T06:44:31.562Z,1008.69
2019-02-07T06:45:31.556Z,1008.69
2019-02-07T06:46:31.615Z,1008.75
2019-02-07T06:47:31.530Z,1008.75
2019-02-07T06:48:31.531Z,1008.77
2019-02-07T06:49:31.512Z,1008.82
2019-02-07T06:50:31.496Z,1008.63
2019-02-07T06:51:31.522Z,1008.64
2019-02-07T06:52:31.495Z,1008.67
2019-02-07T06:53:31.472Z,1008.63
2019-02-07T06:54:31.456Z,1008.65
2019-02-07T06:55:31.450Z,1008.61
2019-02-07T06:56:31.445Z,1008.63
2019-02-07T06:57:31.458Z,1008.63
2019-02-07T06:58:31.421Z,1008.61
2019-02-07T06:59:31.398Z,1008.59
2019-02-07T07:00:31.393Z,1008.55
2019-02-07T07:01:31.382Z,1008.58
2019-02-07T07:02:31.385Z,1008.44
2019-02-07T07:03:31.374Z,1008.56
2019-02-07T07:04:31.346Z,1008.56
2019-02-07T07:05:31.341Z,1008.55
2019-02-07T07:06:31.325Z,1008.47
2019-02-07T07:07:31.328Z,1008.47
2019-02-07T07:08:31.337Z,1008.43
2019-02-07T07:09:31.295Z,1008.42
2019-02-07T07:10:31.276Z,1008.45
2019-02-07T07:11:31.278Z,1008.40
2019-02-07T07:12:31.270Z,1008.45
2019-02-07T07:13:31.255Z,1008.44
2019-02-07T07:14:31.249Z,1008.43
2019-02-07T07:15:31.225Z,1008.48
2019-02-07T07:16:31.230Z,1008.50
2019-02-07T07:17:31.247Z,1008.47
2019-02-07T07:18:31.189Z,1008.47
2019-02-07T07:19:31.249Z,1008.50
2019-02-07T07:20:31.179Z,1008.65
2019-02-07T07:21:31.169Z,1008.60
2019-02-07T07:22:31.147Z,1008.57
2019-02-07T07:23:31.167Z,1008.60
2019-02-07T07:24:31.132Z,1008.53
2019-02-07T07:25:31.143Z,1008.55
2019-02-07T07:26:31.112Z,1008.52
2019-02-07T07:27:31.112Z,1008.55
2019-02-07T07:28:31.116Z,1008.69
2019-02-07T07:29:31.076Z,1008.69
2019-02-07T07:30:31.075Z,1008.67
2019-02-07T07:31:31.059Z,1008.63
2019-02-07T07:32:31.050Z,1008.62
2019-02-07T07:33:31.051Z,1008.63
2019-02-07T07:34:31.028Z,1008.47
2019-02-07T07:35:31.009Z,1008.42
2019-02-07T07:36:30.998Z,1008.44
2019-02-07T07:37:31.010Z,1008.51
2019-02-07T07:38:31.013Z,1008.46
2019-02-07T07:39:30.957Z,1008.46
2019-02-07T07:40:30.961Z,1008.51
2019-02-07T07:41:30.948Z,1008.51
2019-02-07T07:42:30.941Z,1008.50
2019-02-07T07:43:30.949Z,1008.48
2019-02-07T07:44:30.924Z,1008.48
2019-02-07T07:45:30.925Z,1008.44
2019-02-07T07:46:30.900Z,1008.46
2019-02-07T07:47:36.030Z,1008.49
2019-02-07T07:48:31.908Z,1008.44
2019-02-07T07:49:30.855Z,1008.40
2019-02-07T07:50:30.860Z,1008.46
2019-02-07T07:51:30.874Z,1008.43
2019-02-07T07:52:30.829Z,1008.32
2019-02-07T07:53:30.811Z,1008.35
2019-02-07T07:54:30.811Z,1008.32
2019-02-07T07:55:30.799Z,1008.22
2019-02-07T07:56:30.792Z,1008.27
2019-02-07T07:57:30.773Z,1008.17
2019-02-07T07:58:30.758Z,1008.35
2019-02-07T07:59:30.773Z,1008.23
2019-02-07T08:00:30.735Z,1008.14
2019-02-07T08:01:30.733Z,1008.25
2019-02-07T08:02:30.718Z,1008.22
2019-02-07T08:03:30.704Z,1008.06
2019-02-07T08:04:30.702Z,1008.19
2019-02-07T08:05:30.682Z,1008.08
2019-02-07T08:06:30.682Z,1008.09
2019-02-07T08:07:30.661Z,1008.05
2019-02-07T08:08:30.649Z,1008.06
2019-02-07T08:09:30.659Z,1008.03
2019-02-07T08:10:30.632Z,1008.06
2019-02-07T08:11:30.613Z,1008.19
2019-02-07T08:12:30.616Z,1008.02
2019-02-07T08:13:30.597Z,1007.98
2019-02-07T08:14:30.599Z,1007.93
2019-02-07T08:15:30.613Z,1007.90
2019-02-07T08:16:30.585Z,1007.89
2019-02-07T08:17:30.563Z,1007.85
2019-02-07T08:18:30.563Z,1007.93
2019-02-07T08:19:30.543Z,1007.88
2019-02-07T08:20:30.531Z,1007.93
2019-02-07T08:21:30.512Z,1007.95
2019-02-07T08:22:30.516Z,1007.87
2019-02-07T08:23:30.484Z,1007.79
2019-02-07T08:24:30.502Z,1007.78
2019-02-07T08:25:30.460Z,1007.76
2019-02-07T08:26:30.446Z,1007.77
2019-02-07T08:27:30.440Z,1007.79
2019-02-07T08:28:30.447Z,1007.80
2019-02-07T08:29:30.423Z,1007.75
2019-02-07T08:30:36.451Z,1007.76
2019-02-07T08:31:31.409Z,1007.87
2019-02-07T08:32:30.393Z,1007.70
2019-02-07T08:33:30.376Z,1007.70
2019-02-07T08:34:30.365Z,1007.88
2019-02-07T08:35:30.380Z,1007.86
2019-02-07T08:36:30.348Z,1007.78
2019-02-07T08:37:30.342Z,1007.74
2019-02-07T08:38:30.332Z,1007.78
2019-02-07T08:39:30.373Z,1007.78
2019-02-07T08:40:30.408Z,1007.52
2019-02-07T08:41:30.289Z,1007.65
2019-02-07T08:42:30.295Z,1007.60
2019-02-07T08:43:30.277Z,1007.61
2019-02-07T08:44:30.261Z,1007.53
2019-02-07T08:45:30.269Z,1007.48
2019-02-07T08:46:30.231Z,1007.52
2019-02-07T08:47:30.223Z,1007.41
2019-02-07T08:48:30.245Z,1007.55
2019-02-07T08:49:30.217Z,1007.54
2019-02-07T08:50:30.210Z,1007.42
2019-02-07T08:51:30.181Z,1007.37
2019-02-07T08:52:30.165Z,1007.37
2019-02-07T08:53:30.166Z,1007.37
2019-02-07T08:54:30.152Z,1007.38
2019-02-07T08:55:30.184Z,1007.34
2019-02-07T08:56:30.129Z,1007.44
2019-02-07T08:57:30.122Z,1007.33
2019-02-07T08:58:30.113Z,1007.25
2019-02-07T08:59:30.122Z,1007.33
2019-02-07T09:00:30.111Z,1007.26
2019-02-07T09:01:30.094Z,1007.32
2019-02-07T09:02:30.153Z,1007.27
2019-02-07T09:03:30.069Z,1007.26
2019-02-07T09:04:30.079Z,1007.24
2019-02-07T09:05:30.035Z,1007.25
2019-02-07T09:06:30.043Z,1007.31
2019-02-07T09:07:32.077Z,1007.26
2019-02-07T09:08:29.999Z,1007.25
2019-02-07T09:09:30.004Z,1007.25
2019-02-07T09:10:29.972Z,1007.20
2019-02-07T09:11:29.975Z,1007.20
2019-02-07T09:12:29.951Z,1007.33
2019-02-07T09:13:29.941Z,1007.36
2019-02-07T09:14:29.957Z,1007.29
2019-02-07T09:15:29.928Z,1007.35
2019-02-07T09:16:29.936Z,1007.22
2019-02-07T09:17:29.903Z,1007.18
2019-02-07T09:18:29.895Z,1007.06
2019-02-07T09:19:29.926Z,1007.15
2019-02-07T09:20:29.874Z,1007.17
2019-02-07T09:21:29.879Z,1007.12
2019-02-07T09:22:29.856Z,1007.00
2019-02-07T09:23:29.866Z,1007.02
2019-02-07T09:24:29.821Z,1006.95
2019-02-07T09:25:34.329Z,1006.94
2019-02-07T09:26:29.811Z,1006.88
2019-02-07T09:27:29.815Z,1006.85
2019-02-07T09:28:29.800Z,1006.90
2019-02-07T09:29:29.765Z,1006.99
2019-02-07T09:30:29.770Z,1006.93
2019-02-07T09:31:29.743Z,1006.80
2019-02-07T09:32:29.754Z,1006.95
2019-02-07T09:33:29.735Z,1006.93
2019-02-07T09:34:29.721Z,1006.83
2019-02-07T09:35:29.716Z,1006.80
2019-02-07T09:36:29.717Z,1006.77
2019-02-07T09:37:29.696Z,1006.71
2019-02-07T09:38:29.678Z,1006.72
2019-02-07T09:39:29.841Z,1006.75
2019-02-07T09:40:29.651Z,1006.88
2019-02-07T09:41:29.652Z,1006.91
2019-02-07T09:42:29.654Z,1006.88
2019-02-07T09:43:30.806Z,1006.77
2019-02-07T09:44:29.616Z,1006.76
2019-02-07T09:45:29.593Z,1006.80
2019-02-07T09:46:29.586Z,1006.90
2019-02-07T09:47:29.591Z,1006.89
2019-02-07T09:48:29.566Z,1006.77
2019-02-07T09:49:29.550Z,1006.83
2019-02-07T09:50:29.544Z,1006.97
2019-02-07T09:51:29.553Z,1006.85
2019-02-07T09:52:29.527Z,1006.80
2019-02-07T09:53:29.540Z,1006.91
2019-02-07T09:54:29.508Z,1006.85
2019-02-07T09:55:29.497Z,1006.82
2019-02-07T09:56:29.485Z,1006.75
2019-02-07T09:57:29.458Z,1006.94
2019-02-07T09:58:29.468Z,1006.82
2019-02-07T09:59:29.447Z,1006.79
2019-02-07T10:00:29.445Z,1006.83
2019-02-07T10:01:29.423Z,1006.85
2019-02-07T10:02:29.404Z,1006.82
2019-02-07T10:03:29.441Z,1006.95
2019-02-07T10:04:29.391Z,1006.84
2019-02-07T10:05:29.374Z,1006.83
2019-02-07T10:06:29.426Z,1006.74
2019-02-07T10:07:29.362Z,1006.79
2019-02-07T10:08:29.349Z,1006.78
2019-02-07T10:09:29.359Z,1006.68
2019-02-07T10:10:29.404Z,1006.70
2019-02-07T10:11:29.316Z,1006.64
2019-02-07T10:12:29.487Z,1006.65
2019-02-07T10:13:29.389Z,1006.66
2019-02-07T10:14:29.309Z,1006.76
2019-02-07T10:15:29.272Z,1006.59
2019-02-07T10:16:29.261Z,1006.62
2019-02-07T10:17:29.259Z,1006.61
2019-02-07T10:18:33.122Z,1006.59
2019-02-07T10:19:29.253Z,1006.56
2019-02-07T10:20:29.220Z,1006.48
2019-02-07T10:21:29.297Z,1006.50
2019-02-07T10:22:29.199Z,1006.53
2019-02-07T10:23:29.198Z,1006.50
2019-02-07T10:24:29.196Z,1006.58
2019-02-07T10:25:29.156Z,1006.59
2019-02-07T10:26:29.170Z,1006.62
2019-02-07T10:27:29.148Z,1006.69
2019-02-07T10:28:29.130Z,1006.62
2019-02-07T10:29:29.137Z,1006.61
2019-02-07T10:30:29.120Z,1006.59
2019-02-07T10:31:29.102Z,1006.43
2019-02-07T10:32:29.097Z,1006.37
2019-02-07T10:33:29.074Z,1006.43
2019-02-07T10:34:29.101Z,1006.38
2019-02-07T10:35:29.052Z,1006.33
2019-02-07T10:36:29.092Z,1006.25
2019-02-07T10:37:29.042Z,1006.12
2019-02-07T10:38:29.022Z,1006.09
2019-02-07T10:39:29.006Z,1006.12
2019-02-07T10:40:29.021Z,1006.13
2019-02-07T10:41:31.474Z,1006.05
2019-02-07T10:42:29.030Z,1006.03
2019-02-07T10:43:28.967Z,1006.08
2019-02-07T10:44:28.956Z,1006.04
2019-02-07T10:45:28.969Z,1006.21
2019-02-07T10:46:28.939Z,1006.11
2019-02-07T10:47:30.548Z,1006.18
2019-02-07T10:48:28.927Z,1006.07
2019-02-07T10:49:28.908Z,1006.13
2019-02-07T10:50:28.922Z,1006.03
2019-02-07T10:51:28.885Z,1006.07
2019-02-07T10:52:28.870Z,1006.08
2019-02-07T10:53:28.871Z,1006.08
2019-02-07T10:54:28.859Z,1006.08
2019-02-07T10:55:28.876Z,1006.09
2019-02-07T10:56:28.870Z,1006.00
2019-02-07T10:57:28.871Z,1006.05
2019-02-07T10:58:28.807Z,1005.92
2019-02-07T10:59:28.786Z,1005.95
2019-02-07T11:00:28.792Z,1005.93
2019-02-07T11:01:28.787Z,1005.81
2019-02-07T11:02:28.754Z,1005.79
2019-02-07T11:03:28.740Z,1005.73
2019-02-07T11:04:28.747Z,1005.79
2019-02-07T11:05:28.719Z,1005.84
2019-02-07T11:06:28.751Z,1005.81
2019-02-07T11:07:28.710Z,1005.83
2019-02-07T11:08:28.696Z,1005.89
2019-02-07T11:09:28.688Z,1005.86
2019-02-07T11:10:28.688Z,1005.72
2019-02-07T11:11:28.687Z,1005.63
2019-02-07T11:12:28.679Z,1005.59
2019-02-07T11:13:28.641Z,1005.59
2019-02-07T11:14:28.641Z,1005.68
2019-02-07T11:15:28.617Z,1005.72
2019-02-07T11:16:28.737Z,1005.60
2019-02-07T11:17:28.599Z,1005.56
2019-02-07T11:18:28.580Z,1005.59
2019-02-07T11:19:28.571Z,1005.60
2019-02-07T11:20:28.575Z,1005.55
2019-02-07T11:21:28.570Z,1005.67
2019-02-07T11:22:28.541Z,1005.54
2019-02-07T11:23:28.539Z,1005.49
2019-02-07T11:24:28.525Z,1005.38
2019-02-07T11:25:28.512Z,1005.33
2019-02-07T11:26:28.535Z,1005.49
2019-02-07T11:27:28.490Z,1005.42
2019-02-07T11:28:28.490Z,1005.39
2019-02-07T11:29:28.475Z,1005.40
2019-02-07T11:30:28.457Z,1005.51
2019-02-07T11:31:28.436Z,1005.37
2019-02-07T11:32:28.441Z,1005.29
2019-02-07T11:33:28.417Z,1005.30
2019-02-07T11:34:28.417Z,1005.30
2019-02-07T11:35:28.404Z,1005.25
2019-02-07T11:36:28.412Z,1005.33
2019-02-07T11:37:28.387Z,1005.25
2019-02-07T11:38:28.380Z,1005.27
2019-02-07T11:39:29.773Z,1005.34
2019-02-07T11:40:28.377Z,1005.33
2019-02-07T11:41:28.397Z,1005.12
2019-02-07T11:42:28.407Z,1005.17
2019-02-07T11:43:28.341Z,1005.17
2019-02-07T11:44:28.299Z,1004.98
2019-02-07T11:45:28.333Z,1004.95
2019-02-07T11:46:28.278Z,1005.00
2019-02-07T11:47:28.287Z,1004.94
2019-02-07T11:48:28.250Z,1004.91
2019-02-07T11:49:28.231Z,1004.89
2019-02-07T11:50:28.227Z,1004.91
2019-02-07T11:51:28.214Z,1004.85
2019-02-07T11:52:28.217Z,1004.94
2019-02-07T11:53:28.217Z,1004.96
2019-02-07T11:54:28.191Z,1004.97
2019-02-07T11:55:28.173Z,1004.88
2019-02-07T11:56:28.155Z,1004.79
2019-02-07T11:57:28.148Z,1004.82
2019-02-07T11:58:28.167Z,1004.81
2019-02-07T11:59:28.120Z,1004.84
2019-02-07T12:00:28.129Z,1004.80
2019-02-07T12:01:28.108Z,1004.83
2019-02-07T12:02:28.097Z,1004.77
2019-02-07T12:03:28.100Z,1004.91
2019-02-07T12:04:28.068Z,1004.93
2019-02-07T12:05:28.112Z,1004.81